Time;durP1;ratioP1;P1;durP2;ratioP2;P2;SDS_P1;SDS_P2;PMS_P1;PMS_P2;Temp;Humidity;BMP_temperature;BMP_pressure;BME280_temperature;BME280_humidity;BME280_pressure;Samples;Min_cycle;Max_cycle;Signal;HPM_P1;HPM_P2
2022/03/14 00:00:06;;;;;;;;;;;5.20;95.80;;;;;;5114969;28;20010;-42
2022/03/14 00:02:31;;;;;;;;;;;5.20;96.10;;;;;;5115558;28;19908;-42
2022/03/14 00:04:57;;;;;;;;;;;5.10;97.00;;;;;;5115710;28;19914;-44
2022/03/14 00:07:22;;;;;;;;;;;5.10;95.70;;;;;;5115316;28;19915;-42
2022/03/14 00:09:48;;;;;;;;;;;5.20;97.40;;;;;;5115491;28;19908;-42
2022/03/14 00:12:17;;;;;;;;;;;5.20;96.90;;;;;;5115880;28;19916;-45
2022/03/14 00:14:42;;;;;;;;;;;5.10;96.90;;;;;;5115017;28;20277;-43
2022/03/14 00:17:08;;;;;;;;;;;5.00;96.00;;;;;;5115142;28;20003;-42
2022/03/14 00:19:34;;;;;;;;;;;5.00;95.40;;;;;;5115426;28;19972;-44
2022/03/14 00:22:00;;;;;;;;;;;5.00;96.40;;;;;;5115120;28;20370;-44
2022/03/14 00:24:26;;;;;;;;;;;5.00;97.10;;;;;;5115053;28;19908;-43
2022/03/14 00:26:54;;;;;;;;;;;5.00;96.60;;;;;;5115151;28;19912;-43
2022/03/14 00:29:21;;;;;;;;;;;5.10;95.80;;;;;;5114920;28;19926;-43
2022/03/14 00:31:47;;;;;;;;;;;5.10;96.10;;;;;;5115032;28;19961;-42
2022/03/14 00:34:13;;;;;;;;;;;4.90;93.50;;;;;;5114823;28;19955;-44
2022/03/14 00:36:41;;;;;;;;;;;4.90;94.90;;;;;;5113340;28;19908;-42
2022/03/14 00:39:06;;;;;;;;;;;4.80;94.00;;;;;;5115022;28;19919;-42
2022/03/14 00:41:32;;;;;;;;;;;4.80;94.60;;;;;;5114914;28;19908;-42
2022/03/14 00:43:57;;;;;;;;;;;4.80;95.40;;;;;;5114949;28;19914;-42
2022/03/14 00:46:23;;;;;;;;;;;4.80;94.30;;;;;;5114580;28;19919;-42
2022/03/14 00:48:49;;;;;;;;;;;4.70;94.20;;;;;;5114512;28;19916;-42
2022/03/14 00:51:15;;;;;;;;;;;4.60;94.90;;;;;;5114888;28;19908;-44
2022/03/14 00:53:41;;;;;;;;;;;4.80;96.10;;;;;;5114823;28;19908;-42
2022/03/14 00:56:06;;;;;;;;;;;4.70;94.90;;;;;;5114795;28;20373;-41
2022/03/14 00:58:33;;;;;;;;;;;4.70;96.40;;;;;;5114275;28;20315;-42
2022/03/14 01:00:58;;;;;;;;;;;4.70;99.10;;;;;;5114530;28;19968;-43
2022/03/14 01:03:24;;;;;;;;;;;4.70;98.00;;;;;;5114449;28;19951;-41
2022/03/14 01:05:49;;;;;;;;;;;4.70;97.00;;;;;;5114557;28;19915;-42
2022/03/14 01:08:15;;;;;;;;;;;4.70;98.30;;;;;;5114683;28;19916;-44
2022/03/14 01:10:40;;;;;;;;;;;4.60;98.40;;;;;;5113420;28;19908;-42
2022/03/14 01:13:06;;;;;;;;;;;4.70;98.90;;;;;;5114118;28;19915;-42
2022/03/14 01:15:32;;;;;;;;;;;4.80;96.70;;;;;;5113234;28;20255;-41
2022/03/14 01:17:58;;;;;;;;;;;4.70;97.20;;;;;;5114314;28;20283;-44
2022/03/14 01:20:25;;;;;;;;;;;4.70;96.50;;;;;;5114494;28;20015;-42
2022/03/14 01:22:50;;;;;;;;;;;4.80;99.10;;;;;;5114221;28;19908;-42
2022/03/14 01:25:16;;;;;;;;;;;4.80;97.70;;;;;;5113216;28;19908;-42
2022/03/14 01:27:41;;;;;;;;;;;4.80;99.90;;;;;;5114106;28;19959;-42
2022/03/14 01:30:07;;;;;;;;;;;4.70;96.80;;;;;;5114478;28;19926;-43
2022/03/14 01:32:33;;;;;;;;;;;4.80;96.50;;;;;;5114425;28;19952;-42
2022/03/14 01:34:58;;;;;;;;;;;4.80;96.40;;;;;;5113470;28;19915;-44
2022/03/14 01:37:24;;;;;;;;;;;4.90;97.30;;;;;;5114348;28;19912;-42
2022/03/14 01:39:49;;;;;;;;;;;4.90;96.60;;;;;;5114333;28;19915;-44
2022/03/14 01:42:16;;;;;;;;;;;4.90;97.80;;;;;;5114057;28;19916;-43
2022/03/14 01:44:41;;;;;;;;;;;4.90;97.60;;;;;;5114083;28;20278;-42
2022/03/14 01:47:07;;;;;;;;;;;4.90;98.60;;;;;;5114143;28;19908;-44
2022/03/14 01:49:32;;;;;;;;;;;4.90;98.00;;;;;;5113971;28;19908;-43
2022/03/14 01:51:58;;;;;;;;;;;5.00;98.80;;;;;;5113768;28;20354;-43
2022/03/14 01:54:24;;;;;;;;;;;5.00;98.90;;;;;;5114100;28;19912;-43
2022/03/14 01:56:50;;;;;;;;;;;5.10;99.40;;;;;;5114065;28;19908;-42
2022/03/14 01:59:15;;;;;;;;;;;5.10;96.60;;;;;;5113661;28;19961;-42
2022/03/14 02:01:41;;;;;;;;;;;5.20;96.70;;;;;;5114009;28;19908;-42
2022/03/14 02:04:08;;;;;;;;;;;5.20;94.70;;;;;;5114004;28;20020;-42
2022/03/14 02:06:35;;;;;;;;;;;5.30;96.20;;;;;;5114052;28;19911;-43
2022/03/14 02:09:00;;;;;;;;;;;5.40;98.00;;;;;;5113828;28;19965;-43
2022/03/14 02:11:26;;;;;;;;;;;5.50;98.70;;;;;;5113807;28;19912;-43
2022/03/14 02:13:51;;;;;;;;;;;5.50;98.90;;;;;;5113534;28;19908;-42
2022/03/14 02:16:17;;;;;;;;;;;5.60;94.50;;;;;;5113900;28;19908;-42
2022/03/14 02:18:42;;;;;;;;;;;5.60;97.20;;;;;;5113639;28;19908;-42
2022/03/14 02:21:13;;;;;;;;;;;5.70;96.30;;;;;;5113529;28;20316;-42
2022/03/14 02:23:38;;;;;;;;;;;5.70;94.70;;;;;;5114406;28;20365;-44
2022/03/14 02:26:04;;;;;;;;;;;5.80;95.00;;;;;;5117606;28;19911;-42
2022/03/14 02:28:31;;;;;;;;;;;5.90;94.70;;;;;;5117212;28;19982;-42
2022/03/14 02:30:56;;;;;;;;;;;5.90;93.10;;;;;;5117345;28;19908;-42
2022/03/14 02:33:22;;;;;;;;;;;6.00;94.00;;;;;;5117480;28;19930;-41
2022/03/14 02:35:49;;;;;;;;;;;6.20;94.30;;;;;;5117156;28;20362;-41
2022/03/14 02:38:19;;;;;;;;;;;6.20;92.70;;;;;;5117346;28;20007;-42
2022/03/14 02:40:48;;;;;;;;;;;6.30;92.90;;;;;;5117303;28;19912;-42
2022/03/14 02:43:20;;;;;;;;;;;6.40;94.00;;;;;;5116869;28;19919;-41
2022/03/14 02:45:46;;;;;;;;;;;6.40;93.80;;;;;;5117063;28;19911;-43
2022/03/14 02:48:12;;;;;;;;;;;6.40;94.70;;;;;;5116784;28;20393;-41
2022/03/14 02:50:41;;;;;;;;;;;6.50;96.20;;;;;;5117064;28;19912;-43
2022/03/14 02:53:06;;;;;;;;;;;6.60;93.50;;;;;;5117059;28;20269;-44
2022/03/14 02:55:32;;;;;;;;;;;6.70;93.70;;;;;;5116663;28;19994;-42
2022/03/14 02:57:59;;;;;;;;;;;6.80;96.00;;;;;;5116867;28;19958;-41
2022/03/14 03:00:24;;;;;;;;;;;6.90;93.00;;;;;;5116813;28;19912;-43
2022/03/14 03:02:50;;;;;;;;;;;7.00;95.10;;;;;;5116886;28;19915;-43
2022/03/14 03:05:16;;;;;;;;;;;7.20;93.90;;;;;;5116753;28;19908;-42
2022/03/14 03:07:42;;;;;;;;;;;7.30;92.90;;;;;;5115513;28;20002;-42
2022/03/14 03:10:08;;;;;;;;;;;7.50;95.20;;;;;;5116856;28;20002;-41
2022/03/14 03:12:35;;;;;;;;;;;7.60;93.90;;;;;;5116712;28;20418;-44
2022/03/14 03:15:00;;;;;;;;;;;7.70;94.40;;;;;;5116566;28;20304;-46
2022/03/14 03:17:26;;;;;;;;;;;7.80;92.70;;;;;;5116312;28;19908;-42
2022/03/14 03:19:52;;;;;;;;;;;7.90;92.70;;;;;;5116928;28;20266;-42
2022/03/14 03:22:17;;;;;;;;;;;8.00;92.50;;;;;;5116488;28;19914;-42
2022/03/14 03:24:43;;;;;;;;;;;8.10;92.70;;;;;;5115156;28;19999;-42
2022/03/14 03:27:08;;;;;;;;;;;8.20;93.50;;;;;;5115884;28;19999;-41
2022/03/14 03:29:34;;;;;;;;;;;8.20;94.30;;;;;;5116160;28;19968;-43
2022/03/14 03:31:59;;;;;;;;;;;8.30;94.20;;;;;;5116214;28;19960;-42
2022/03/14 03:34:25;;;;;;;;;;;8.30;94.60;;;;;;5116274;28;20368;-41
2022/03/14 03:36:50;;;;;;;;;;;8.40;94.90;;;;;;5114661;28;19908;-41
2022/03/14 03:39:16;;;;;;;;;;;8.40;95.60;;;;;;5115909;28;19908;-40
2022/03/14 03:41:41;;;;;;;;;;;8.40;96.00;;;;;;5116430;28;19920;-41
2022/03/14 03:44:07;;;;;;;;;;;8.50;96.50;;;;;;5115809;28;19986;-42
2022/03/14 03:46:33;;;;;;;;;;;8.50;96.30;;;;;;5115693;28;20289;-43
2022/03/14 03:48:58;;;;;;;;;;;8.50;96.90;;;;;;5115942;28;19916;-42
2022/03/14 03:51:24;;;;;;;;;;;8.60;97.00;;;;;;5115562;28;19912;-43
2022/03/14 03:53:49;;;;;;;;;;;8.50;96.90;;;;;;5114469;28;20350;-41
2022/03/14 03:56:15;;;;;;;;;;;8.50;97.40;;;;;;5115795;28;19961;-42
2022/03/14 03:58:41;;;;;;;;;;;8.50;98.20;;;;;;5115796;27;19915;-42
2022/03/14 04:01:08;;;;;;;;;;;8.50;98.10;;;;;;5116059;28;20358;-42
2022/03/14 04:03:34;;;;;;;;;;;8.50;98.40;;;;;;5115693;28;19917;-42
2022/03/14 04:06:00;;;;;;;;;;;8.40;98.60;;;;;;5114387;28;19951;-42
2022/03/14 04:08:30;;;;;;;;;;;8.40;98.60;;;;;;5115195;28;19939;-41
2022/03/14 04:10:57;;;;;;;;;;;8.40;99.20;;;;;;5115667;28;19908;-41
2022/03/14 04:13:24;;;;;;;;;;;8.30;99.50;;;;;;5115788;28;19915;-42
2022/03/14 04:15:54;;;;;;;;;;;8.20;99.80;;;;;;5115191;28;19907;-43
2022/03/14 04:18:20;;;;;;;;;;;8.20;99.90;;;;;;5115087;28;19912;-42
2022/03/14 04:20:47;;;;;;;;;;;8.20;99.90;;;;;;5115283;28;19919;-41
2022/03/14 04:23:13;;;;;;;;;;;8.30;99.90;;;;;;5114929;28;20277;-42
2022/03/14 04:25:38;;;;;;;;;;;8.30;99.90;;;;;;5115206;28;19907;-41
2022/03/14 04:28:04;;;;;;;;;;;8.30;99.90;;;;;;5114732;28;20385;-46
2022/03/14 04:30:29;;;;;;;;;;;8.30;99.90;;;;;;5113517;28;20003;-43
2022/03/14 04:32:55;;;;;;;;;;;8.30;99.90;;;;;;5114923;28;19907;-43
2022/03/14 04:35:20;;;;;;;;;;;8.30;99.90;;;;;;5114684;28;19915;-42
2022/03/14 04:37:46;;;;;;;;;;;8.20;99.90;;;;;;5114613;28;20380;-44
2022/03/14 04:40:13;;;;;;;;;;;8.20;99.90;;;;;;5114835;28;20007;-42
2022/03/14 04:42:40;;;;;;;;;;;8.10;99.90;;;;;;5114627;28;20041;-42
2022/03/14 04:45:06;;;;;;;;;;;8.10;99.90;;;;;;5115042;28;19908;-44
2022/03/14 04:47:31;;;;;;;;;;;8.10;99.90;;;;;;5112669;28;19916;-42
2022/03/14 04:49:57;;;;;;;;;;;8.10;99.90;;;;;;5114550;28;20285;-43
2022/03/14 04:52:24;;;;;;;;;;;8.00;99.90;;;;;;5114524;28;19908;-42
2022/03/14 04:54:49;;;;;;;;;;;8.00;99.90;;;;;;5114224;28;20320;-43
2022/03/14 04:57:15;;;;;;;;;;;8.00;99.90;;;;;;5114547;28;19907;-43
2022/03/14 04:59:41;;;;;;;;;;;7.90;99.90;;;;;;5114284;28;19930;-43
2022/03/14 05:02:07;;;;;;;;;;;7.90;99.90;;;;;;5114506;28;19908;-43
2022/03/14 05:04:32;;;;;;;;;;;7.90;99.90;;;;;;5114537;28;20386;-45
2022/03/14 05:06:58;;;;;;;;;;;7.80;99.90;;;;;;5114585;28;19915;-42
2022/03/14 05:09:25;;;;;;;;;;;7.80;99.90;;;;;;5114260;28;19973;-45
2022/03/14 05:11:50;;;;;;;;;;;7.80;99.90;;;;;;5112735;28;19907;-43
2022/03/14 05:14:16;;;;;;;;;;;7.80;99.90;;;;;;5112622;28;19908;-44
2022/03/14 05:16:42;;;;;;;;;;;7.80;99.90;;;;;;5113942;28;19907;-42
2022/03/14 05:19:08;;;;;;;;;;;7.90;99.90;;;;;;5113203;28;20251;-45
2022/03/14 05:21:33;;;;;;;;;;;7.90;99.90;;;;;;5114173;28;19976;-43
2022/03/14 05:23:59;;;;;;;;;;;7.90;99.90;;;;;;5113019;28;20037;-43
2022/03/14 05:26:24;;;;;;;;;;;8.00;99.90;;;;;;5113692;28;20219;-42
2022/03/14 05:28:50;;;;;;;;;;;8.00;99.90;;;;;;5114001;28;19923;-41
2022/03/14 05:31:16;;;;;;;;;;;8.00;99.90;;;;;;5112852;28;19908;-41
2022/03/14 05:33:42;;;;;;;;;;;8.10;99.90;;;;;;5114100;28;19908;-43
2022/03/14 05:36:08;;;;;;;;;;;8.10;99.90;;;;;;5113985;28;19908;-44
2022/03/14 05:38:33;;;;;;;;;;;8.10;99.90;;;;;;5113722;28;19908;-43
2022/03/14 05:40:59;;;;;;;;;;;8.10;99.90;;;;;;5114052;28;19927;-42
2022/03/14 05:43:26;;;;;;;;;;;8.20;99.90;;;;;;5098771;28;19919;-42
2022/03/14 05:45:52;;;;;;;;;;;8.10;99.90;;;;;;5093060;28;19939;-44
2022/03/14 05:48:18;;;;;;;;;;;8.20;99.90;;;;;;5093278;28;19955;-44
2022/03/14 05:50:43;;;;;;;;;;;8.20;99.90;;;;;;5093334;28;20441;-45
2022/03/14 05:53:11;;;;;;;;;;;8.30;99.90;;;;;;5093050;28;19908;-44
2022/03/14 05:55:36;;;;;;;;;;;8.30;99.90;;;;;;5126321;28;19913;-44
2022/03/14 05:58:03;;;;;;;;;;;8.30;99.90;;;;;;5093225;28;19908;-43
2022/03/14 06:00:30;;;;;;;;;;;8.30;99.90;;;;;;5096614;28;19957;-43
2022/03/14 06:02:56;;;;;;;;;;;8.30;99.90;;;;;;5097286;28;19950;-44
2022/03/14 06:05:22;;;;;;;;;;;8.30;99.90;;;;;;5096984;28;19912;-44
2022/03/14 06:07:48;;;;;;;;;;;8.40;99.90;;;;;;5096552;28;20354;-42
2022/03/14 06:10:15;;;;;;;;;;;8.50;99.90;;;;;;5092970;28;19912;-44
2022/03/14 06:12:41;;;;;;;;;;;8.60;99.90;;;;;;5097111;28;20278;-44
2022/03/14 06:15:12;;;;;;;;;;;8.60;99.90;;;;;;5095104;28;19908;-43
2022/03/14 06:17:41;;;;;;;;;;;8.50;99.90;;;;;;5096455;28;19931;-43
2022/03/14 06:20:07;;;;;;;;;;;8.60;99.90;;;;;;5107477;28;20463;-42
2022/03/14 06:22:36;;;;;;;;;;;8.60;99.90;;;;;;5101177;28;19909;-43
2022/03/14 06:25:02;;;;;;;;;;;8.60;99.90;;;;;;5095253;28;20374;-42
2022/03/14 06:27:28;;;;;;;;;;;8.60;99.90;;;;;;5108258;28;19916;-44
2022/03/14 06:29:53;;;;;;;;;;;8.70;99.90;;;;;;5117100;28;19931;-43
2022/03/14 06:32:19;;;;;;;;;;;8.80;99.90;;;;;;5116552;28;19908;-42
2022/03/14 06:34:44;;;;;;;;;;;9.00;99.90;;;;;;5116404;28;20273;-44
2022/03/14 06:37:10;;;;;;;;;;;9.10;99.90;;;;;;5115153;28;19931;-43
2022/03/14 06:39:36;;;;;;;;;;;9.10;99.90;;;;;;5088670;28;19912;-44
2022/03/14 06:42:09;;;;;;;;;;;9.10;99.90;;;;;;5093273;28;19908;-42
2022/03/14 06:44:42;;;;;;;;;;;9.10;99.90;;;;;;5095812;28;20300;-43
2022/03/14 06:47:08;;;;;;;;;;;9.10;99.90;;;;;;5094452;28;19912;-47
2022/03/14 06:49:36;;;;;;;;;;;9.10;99.90;;;;;;5100347;28;19915;-44
2022/03/14 06:52:02;;;;;;;;;;;9.00;99.90;;;;;;5116105;28;20407;-44
2022/03/14 06:54:27;;;;;;;;;;;9.00;99.90;;;;;;5105490;28;19904;-47
2022/03/14 06:56:53;;;;;;;;;;;9.10;99.90;;;;;;5095961;28;20235;-44
2022/03/14 06:59:19;;;;;;;;;;;9.20;99.90;;;;;;5095838;28;19914;-45
2022/03/14 07:01:44;;;;;;;;;;;9.30;99.90;;;;;;5082242;28;20053;-42
2022/03/14 07:04:10;;;;;;;;;;;9.40;99.90;;;;;;5117417;27;19969;-42
2022/03/14 07:06:35;;;;;;;;;;;9.40;99.90;;;;;;5075189;28;19904;-42
2022/03/14 07:09:02;;;;;;;;;;;9.50;99.90;;;;;;5081764;28;20368;-42
2022/03/14 07:11:28;;;;;;;;;;;9.40;99.90;;;;;;5080489;28;19988;-45
2022/03/14 07:13:53;;;;;;;;;;;9.50;99.90;;;;;;5077967;28;19971;-43
2022/03/14 07:16:20;;;;;;;;;;;9.60;99.90;;;;;;5090072;28;19951;-43
2022/03/14 07:18:46;;;;;;;;;;;9.50;99.90;;;;;;5093990;28;19995;-45
2022/03/14 07:21:12;;;;;;;;;;;9.60;99.90;;;;;;5078122;28;19939;-43
2022/03/14 07:23:37;;;;;;;;;;;9.70;99.90;;;;;;5075990;28;19912;-43
2022/03/14 07:26:03;;;;;;;;;;;9.80;99.90;;;;;;5075077;28;19948;-42
2022/03/14 07:28:28;;;;;;;;;;;10.00;99.90;;;;;;5074710;28;19923;-42
2022/03/14 07:30:54;;;;;;;;;;;10.10;99.90;;;;;;5075143;28;19920;-42
2022/03/14 07:33:20;;;;;;;;;;;10.20;99.90;;;;;;5075047;28;20390;-43
2022/03/14 07:35:45;;;;;;;;;;;10.10;99.90;;;;;;5074967;28;20294;-45
2022/03/14 07:38:11;;;;;;;;;;;10.10;99.90;;;;;;5074509;28;19995;-43
2022/03/14 07:40:37;;;;;;;;;;;10.00;99.90;;;;;;5074683;28;20271;-43
2022/03/14 07:43:02;;;;;;;;;;;10.10;99.90;;;;;;5074740;28;20385;-43
2022/03/14 07:45:28;;;;;;;;;;;10.20;99.90;;;;;;5073411;28;19982;-42
2022/03/14 07:47:54;;;;;;;;;;;10.40;99.90;;;;;;5073970;28;20304;-43
2022/03/14 07:50:20;;;;;;;;;;;10.40;99.90;;;;;;5074401;28;20301;-44
2022/03/14 07:52:46;;;;;;;;;;;10.50;99.90;;;;;;5074702;28;19912;-43
2022/03/14 07:55:12;;;;;;;;;;;10.60;99.90;;;;;;5074107;28;19916;-42
2022/03/14 07:57:38;;;;;;;;;;;10.60;99.90;;;;;;5073039;28;19912;-43
2022/03/14 08:00:06;;;;;;;;;;;10.20;99.90;;;;;;5074783;28;20281;-43
2022/03/14 08:02:31;;;;;;;;;;;10.30;99.90;;;;;;5073881;28;19909;-44
2022/03/14 08:04:57;;;;;;;;;;;10.40;99.90;;;;;;5074289;28;19916;-42
2022/03/14 08:07:23;;;;;;;;;;;10.60;99.90;;;;;;5073557;28;20419;-43
2022/03/14 08:09:48;;;;;;;;;;;10.70;99.90;;;;;;5074049;28;20285;-44
2022/03/14 08:12:14;;;;;;;;;;;10.70;99.90;;;;;;5074146;28;20393;-42
2022/03/14 08:14:40;;;;;;;;;;;10.90;99.90;;;;;;5073925;28;19993;-43
2022/03/14 08:17:05;;;;;;;;;;;11.20;99.90;;;;;;5073914;28;19908;-42
2022/03/14 08:19:32;;;;;;;;;;;11.50;99.90;;;;;;5074044;28;19908;-42
2022/03/14 08:21:58;;;;;;;;;;;11.40;99.90;;;;;;5073300;28;19956;-44
2022/03/14 08:24:24;;;;;;;;;;;11.50;99.90;;;;;;5073507;28;19924;-42
2022/03/14 08:26:50;;;;;;;;;;;11.70;99.90;;;;;;5073540;28;19962;-42
2022/03/14 08:29:15;;;;;;;;;;;11.80;99.90;;;;;;5073634;28;19980;-42
2022/03/14 08:31:41;;;;;;;;;;;11.70;99.90;;;;;;5073639;28;19908;-42
2022/03/14 08:34:07;;;;;;;;;;;11.80;99.90;;;;;;5073918;28;20333;-42
2022/03/14 08:36:35;;;;;;;;;;;11.80;99.90;;;;;;5073627;28;19919;-43
2022/03/14 08:39:02;;;;;;;;;;;11.70;99.90;;;;;;5073878;28;19924;-42
2022/03/14 08:41:29;;;;;;;;;;;11.80;99.90;;;;;;5073699;28;19909;-45
2022/03/14 08:43:54;;;;;;;;;;;11.70;99.90;;;;;;5073259;28;19912;-42
2022/03/14 08:46:20;;;;;;;;;;;11.50;99.90;;;;;;5073493;28;19931;-42
2022/03/14 08:48:46;;;;;;;;;;;11.60;99.90;;;;;;5073450;28;19935;-43
2022/03/14 08:51:11;;;;;;;;;;;11.80;99.90;;;;;;5073751;28;19912;-43
2022/03/14 08:53:37;;;;;;;;;;;11.80;99.90;;;;;;5073237;28;20358;-43
2022/03/14 08:56:02;;;;;;;;;;;11.80;99.90;;;;;;5073197;28;20338;-43
2022/03/14 08:58:31;;;;;;;;;;;11.80;99.90;;;;;;5073703;28;20407;-43
2022/03/14 09:00:59;;;;;;;;;;;11.90;99.90;;;;;;5073619;28;19916;-42
2022/03/14 09:03:26;;;;;;;;;;;12.10;99.90;;;;;;5073202;28;19936;-45
2022/03/14 09:05:56;;;;;;;;;;;12.30;99.90;;;;;;5073242;28;19916;-44
2022/03/14 09:08:28;;;;;;;;;;;12.20;99.90;;;;;;5072880;28;20420;-43
2022/03/14 09:10:55;;;;;;;;;;;12.00;99.90;;;;;;5088780;28;19940;-42
2022/03/14 09:13:21;;;;;;;;;;;12.20;99.90;;;;;;5071915;28;19920;-46
2022/03/14 09:15:50;;;;;;;;;;;12.40;99.90;;;;;;5072920;28;19942;-42
2022/03/14 09:18:16;;;;;;;;;;;12.70;99.90;;;;;;5072669;28;19912;-43
2022/03/14 09:20:42;;;;;;;;;;;12.90;99.90;;;;;;5073323;28;20010;-44
2022/03/14 09:23:08;;;;;;;;;;;13.00;99.90;;;;;;5073270;28;19909;-43
2022/03/14 09:25:34;;;;;;;;;;;13.00;99.50;;;;;;5072981;28;19912;-42
2022/03/14 09:28:00;;;;;;;;;;;13.20;98.90;;;;;;5073115;28;19935;-42
2022/03/14 09:30:26;;;;;;;;;;;13.00;98.90;;;;;;5105467;28;19926;-45
2022/03/14 09:32:52;;;;;;;;;;;12.80;99.60;;;;;;5073883;28;19908;-44
2022/03/14 09:35:18;;;;;;;;;;;12.90;99.50;;;;;;5075963;28;19979;-42
2022/03/14 09:37:45;;;;;;;;;;;12.80;99.40;;;;;;5077134;28;20268;-44
2022/03/14 09:40:12;;;;;;;;;;;13.00;99.90;;;;;;5077082;28;20355;-45
2022/03/14 09:42:42;;;;;;;;;;;13.20;98.60;;;;;;5077543;28;20245;-43
2022/03/14 09:45:08;;;;;;;;;;;13.40;99.10;;;;;;5077224;28;20050;-42
2022/03/14 09:47:38;;;;;;;;;;;13.30;98.60;;;;;;5092883;28;20294;-43
2022/03/14 09:50:05;;;;;;;;;;;13.30;98.60;;;;;;5076801;28;20004;-44
2022/03/14 09:52:31;;;;;;;;;;;13.50;99.80;;;;;;5077277;28;19908;-43
2022/03/14 09:54:57;;;;;;;;;;;13.60;97.90;;;;;;5076533;28;19909;-43
2022/03/14 09:57:22;;;;;;;;;;;13.40;97.90;;;;;;5076551;28;19909;-43
2022/03/14 09:59:49;;;;;;;;;;;13.70;98.00;;;;;;5076847;28;20346;-47
2022/03/14 10:02:15;;;;;;;;;;;13.80;97.80;;;;;;5076454;28;20392;-44
2022/03/14 10:04:40;;;;;;;;;;;13.50;97.70;;;;;;5076878;28;19908;-43
2022/03/14 10:07:06;;;;;;;;;;;13.00;98.40;;;;;;5076545;28;19909;-45
2022/03/14 10:09:34;;;;;;;;;;;13.20;98.20;;;;;;5076326;28;19924;-43
2022/03/14 10:11:59;;;;;;;;;;;13.10;98.10;;;;;;5076579;28;19984;-45
2022/03/14 10:14:25;;;;;;;;;;;13.00;97.80;;;;;;5076555;28;19915;-43
2022/03/14 10:16:55;;;;;;;;;;;13.10;98.40;;;;;;5112662;27;20317;-42
2022/03/14 10:19:28;;;;;;;;;;;13.30;97.80;;;;;;5095861;28;19916;-41
2022/03/14 10:21:54;;;;;;;;;;;13.70;97.00;;;;;;5107049;28;19957;-46
2022/03/14 10:24:22;;;;;;;;;;;13.70;96.90;;;;;;5117138;28;19908;-47
2022/03/14 10:26:49;;;;;;;;;;;14.20;98.40;;;;;;5098188;28;19955;-47
2022/03/14 10:29:14;;;;;;;;;;;14.90;96.90;;;;;;5096138;28;19924;-44
2022/03/14 10:31:41;;;;;;;;;;;15.00;97.20;;;;;;5095981;28;19913;-46
2022/03/14 10:34:11;;;;;;;;;;;15.30;95.10;;;;;;5096294;28;19908;-46
2022/03/14 10:37:00;;;;;;;;;;;14.80;94.80;;;;;;5096108;28;19908;-42
2022/03/14 10:39:25;;;;;;;;;;;13.80;95.80;;;;;;5091423;28;19908;-47
2022/03/14 10:41:59;;;;;;;;;;;13.60;96.30;;;;;;5075838;28;19908;-45
2022/03/14 10:44:25;;;;;;;;;;;13.70;96.40;;;;;;5093160;28;19916;-48
2022/03/14 10:46:51;;;;;;;;;;;13.80;96.60;;;;;;5094976;28;19912;-47
2022/03/14 10:49:17;;;;;;;;;;;13.60;96.20;;;;;;5094488;28;19941;-44
2022/03/14 10:51:56;;;;;;;;;;;12.90;97.20;;;;;;5092387;28;20001;-45
2022/03/14 10:54:22;;;;;;;;;;;13.00;97.20;;;;;;5094771;28;19916;-44
2022/03/14 10:57:03;;;;;;;;;;;13.60;97.10;;;;;;5094811;28;19947;-44
2022/03/14 10:59:32;;;;;;;;;;;13.80;96.80;;;;;;5095107;28;19913;-45
2022/03/14 11:01:58;;;;;;;;;;;14.20;95.90;;;;;;5093347;28;19919;-44
2022/03/14 11:04:26;;;;;;;;;;;14.30;97.10;;;;;;5095269;28;19920;-45
2022/03/14 11:06:58;;;;;;;;;;;14.00;95.70;;;;;;5093594;28;19913;-46
2022/03/14 11:09:35;;;;;;;;;;;14.30;96.10;;;;;;5093310;28;20393;-45
2022/03/14 11:12:08;;;;;;;;;;;13.90;94.70;;;;;;5094526;28;19916;-44
2022/03/14 11:14:34;;;;;;;;;;;13.60;95.30;;;;;;5093388;28;19916;-45
2022/03/14 11:17:17;;;;;;;;;;;14.10;95.90;;;;;;5094605;28;19912;-43
2022/03/14 11:19:43;;;;;;;;;;;13.60;95.60;;;;;;5094510;28;19942;-44
2022/03/14 11:22:12;;;;;;;;;;;13.50;96.50;;;;;;5094559;28;20006;-47
2022/03/14 11:24:48;;;;;;;;;;;13.40;96.80;;;;;;5104249;28;20005;-45
2022/03/14 11:27:17;;;;;;;;;;;13.30;96.60;;;;;;5109125;28;19907;-44
2022/03/14 11:29:43;;;;;;;;;;;13.00;97.00;;;;;;5102448;28;19932;-44
2022/03/14 11:32:09;;;;;;;;;;;13.10;97.40;;;;;;5108611;28;19915;-45
2022/03/14 11:34:35;;;;;;;;;;;13.30;96.80;;;;;;5098955;28;19916;-44
2022/03/14 11:37:01;;;;;;;;;;;14.10;95.70;;;;;;5094691;28;20355;-44
2022/03/14 11:39:27;;;;;;;;;;;14.50;94.70;;;;;;5094378;28;19916;-47
2022/03/14 11:41:54;;;;;;;;;;;14.70;94.80;;;;;;5093038;28;19971;-42
2022/03/14 11:44:20;;;;;;;;;;;14.50;94.60;;;;;;5093010;28;19920;-47
2022/03/14 11:46:46;;;;;;;;;;;14.40;94.30;;;;;;5093551;28;19918;-45
2022/03/14 11:49:15;;;;;;;;;;;14.80;94.80;;;;;;5109673;28;20002;-47
2022/03/14 11:51:41;;;;;;;;;;;14.80;94.50;;;;;;5112933;28;19927;-45
2022/03/14 11:54:11;;;;;;;;;;;14.90;94.80;;;;;;5093467;28;19908;-46
2022/03/14 11:56:38;;;;;;;;;;;15.00;93.90;;;;;;5092429;28;19974;-47
2022/03/14 11:59:10;;;;;;;;;;;14.70;94.40;;;;;;5094654;28;19919;-45
2022/03/14 12:01:47;;;;;;;;;;;14.30;94.20;;;;;;5094408;28;19912;-44
2022/03/14 12:04:26;;;;;;;;;;;14.10;94.70;;;;;;5099534;28;20404;-44
2022/03/14 12:06:52;;;;;;;;;;;13.80;94.50;;;;;;5101188;28;20007;-44
2022/03/14 12:09:23;;;;;;;;;;;13.90;95.60;;;;;;5093519;28;20031;-43
2022/03/14 12:11:49;;;;;;;;;;;14.10;94.40;;;;;;5092189;28;20282;-42
2022/03/14 12:14:34;;;;;;;;;;;14.40;93.80;;;;;;5091973;28;20321;-44
2022/03/14 12:17:15;;;;;;;;;;;14.30;94.40;;;;;;5109430;28;19907;-41
2022/03/14 12:20:00;;;;;;;;;;;14.00;93.80;;;;;;5109927;28;20006;-49
2022/03/14 12:22:29;;;;;;;;;;;14.00;95.10;;;;;;5093150;28;19908;-41
2022/03/14 12:24:55;;;;;;;;;;;13.90;94.00;;;;;;5093504;28;19912;-41
2022/03/14 12:27:21;;;;;;;;;;;14.20;94.70;;;;;;5093599;28;20004;-47
2022/03/14 12:29:50;;;;;;;;;;;14.50;94.00;;;;;;5094018;28;20338;-41
2022/03/14 12:32:22;;;;;;;;;;;14.20;93.80;;;;;;5093598;28;19916;-44
2022/03/14 12:34:54;;;;;;;;;;;14.30;93.80;;;;;;5091917;28;19912;-46
2022/03/14 12:37:34;;;;;;;;;;;14.90;93.20;;;;;;5092231;28;19912;-43
2022/03/14 12:40:00;;;;;;;;;;;15.10;92.80;;;;;;5092301;28;19912;-42
2022/03/14 12:42:26;;;;;;;;;;;15.00;92.80;;;;;;5091545;28;19945;-45
2022/03/14 12:45:10;;;;;;;;;;;15.40;93.10;;;;;;5092878;28;19919;-50
2022/03/14 12:47:39;;;;;;;;;;;15.70;93.20;;;;;;5090404;28;19919;-45
2022/03/14 12:50:05;;;;;;;;;;;15.60;92.10;;;;;;5088863;28;19960;-42
2022/03/14 12:52:30;;;;;;;;;;;14.60;92.30;;;;;;5092540;28;19908;-42
2022/03/14 12:55:16;;;;;;;;;;;14.40;92.40;;;;;;5093424;28;19915;-43
2022/03/14 12:57:42;;;;;;;;;;;14.60;92.70;;;;;;5093877;28;19936;-46
2022/03/14 13:00:10;;;;;;;;;;;14.50;92.50;;;;;;5093862;28;19908;-44
2022/03/14 13:02:35;;;;;;;;;;;14.50;93.10;;;;;;5093693;28;19908;-42
2022/03/14 13:05:02;;;;;;;;;;;14.80;92.60;;;;;;5092940;28;19915;-43
2022/03/14 13:07:28;;;;;;;;;;;15.10;92.40;;;;;;5092561;28;19952;-42
2022/03/14 13:09:54;;;;;;;;;;;15.10;92.10;;;;;;5093195;28;19908;-42
2022/03/14 13:12:20;;;;;;;;;;;15.20;92.20;;;;;;5093310;28;19908;-44
2022/03/14 13:14:46;;;;;;;;;;;15.40;91.70;;;;;;5092846;28;19995;-43
2022/03/14 13:17:19;;;;;;;;;;;15.50;91.90;;;;;;5093164;28;20048;-42
2022/03/14 13:19:46;;;;;;;;;;;15.20;91.20;;;;;;5093061;28;19998;-43
2022/03/14 13:22:12;;;;;;;;;;;15.30;91.90;;;;;;5093598;28;19908;-43
2022/03/14 13:24:38;;;;;;;;;;;15.60;91.50;;;;;;5092865;28;19994;-45
2022/03/14 13:27:04;;;;;;;;;;;15.60;91.70;;;;;;5092592;28;19918;-43
2022/03/14 13:29:36;;;;;;;;;;;15.60;91.10;;;;;;5093026;28;19920;-42
2022/03/14 13:32:12;;;;;;;;;;;15.30;91.90;;;;;;5092830;28;20143;-47
2022/03/14 13:34:37;;;;;;;;;;;15.20;92.30;;;;;;5093332;28;20097;-43
2022/03/14 13:37:03;;;;;;;;;;;15.40;91.60;;;;;;5093057;28;19954;-42
2022/03/14 13:39:29;;;;;;;;;;;15.40;91.00;;;;;;5092904;28;20007;-42
2022/03/14 13:41:57;;;;;;;;;;;15.40;91.10;;;;;;5093417;28;19912;-42
2022/03/14 13:44:24;;;;;;;;;;;15.10;90.90;;;;;;5092867;28;19908;-43
2022/03/14 13:46:50;;;;;;;;;;;14.80;90.80;;;;;;5092785;28;19912;-42
2022/03/14 13:49:15;;;;;;;;;;;14.80;91.80;;;;;;5092785;28;19912;-43
2022/03/14 13:51:42;;;;;;;;;;;14.90;91.70;;;;;;5093030;28;20115;-42
2022/03/14 13:54:19;;;;;;;;;;;14.70;91.30;;;;;;5093476;28;19915;-43
2022/03/14 13:56:46;;;;;;;;;;;15.00;91.70;;;;;;5093338;28;19912;-44
2022/03/14 13:59:31;;;;;;;;;;;15.20;91.20;;;;;;5092840;28;19909;-46
2022/03/14 14:01:57;;;;;;;;;;;15.30;91.80;;;;;;5092950;28;19908;-42
2022/03/14 14:04:24;;;;;;;;;;;15.50;90.60;;;;;;5092398;28;19915;-42
2022/03/14 14:06:50;;;;;;;;;;;15.40;90.20;;;;;;5092804;28;19915;-42
2022/03/14 14:09:16;;;;;;;;;;;15.30;89.70;;;;;;5092436;28;19912;-42
2022/03/14 14:11:54;;;;;;;;;;;15.50;90.00;;;;;;5092658;28;20334;-42
2022/03/14 14:14:26;;;;;;;;;;;15.30;91.00;;;;;;5092216;28;19943;-43
2022/03/14 14:16:52;;;;;;;;;;;15.60;91.00;;;;;;5092161;28;20074;-43
2022/03/14 14:19:17;;;;;;;;;;;15.80;90.30;;;;;;5092440;28;19993;-44
2022/03/14 14:21:55;;;;;;;;;;;15.60;89.70;;;;;;5096169;28;19923;-45